createdAt,value
2023-04-09T00:02:22.323Z,21.23
2023-04-09T00:04:49.332Z,19.98
2023-04-09T00:07:16.322Z,21.90
2023-04-09T00:09:43.232Z,20.67
2023-04-09T00:12:10.692Z,19.38
2023-04-09T00:14:37.634Z,20.95
2023-04-09T00:17:04.551Z,19.08
2023-04-09T00:19:31.498Z,19.13
2023-04-09T00:21:58.396Z,19.17
2023-04-09T00:24:25.562Z,19.02
2023-04-09T00:26:53.590Z,21.33
2023-04-09T00:29:20.629Z,20.08
2023-04-09T00:31:47.644Z,20.23
2023-04-09T00:34:14.569Z,21.17
2023-04-09T00:36:41.456Z,20.45
2023-04-09T00:39:08.397Z,21.63
2023-04-09T00:41:35.324Z,21.10
2023-04-09T00:44:02.313Z,20.38
2023-04-09T00:46:29.280Z,21.30
2023-04-09T00:48:56.303Z,22.58
2023-04-09T00:51:23.346Z,22.35
2023-04-09T00:53:50.946Z,20.90
2023-04-09T00:56:18.759Z,19.60
2023-04-09T00:58:46.035Z,20.95
2023-04-09T01:01:12.973Z,20.70
2023-04-09T01:03:40.456Z,20.30
2023-04-09T01:06:19.459Z,20.20
2023-04-09T01:08:46.456Z,19.27
2023-04-09T01:11:28.546Z,20.63
2023-04-09T01:14:26.477Z,18.10
2023-04-09T01:17:05.650Z,16.50
2023-04-09T01:20:13.617Z,15.75
2023-04-09T01:22:58.326Z,15.05
2023-04-09T01:25:56.300Z,16.25
2023-04-09T01:28:28.110Z,14.85
2023-04-09T01:31:04.428Z,14.55
2023-04-09T01:33:32.611Z,14.43
2023-04-09T01:36:01.196Z,14.10
2023-04-09T01:38:28.844Z,14.65
2023-04-09T01:40:57.745Z,14.43
2023-04-09T01:43:26.231Z,14.27
2023-04-09T01:45:54.271Z,14.95
2023-04-09T01:48:22.309Z,15.35
2023-04-09T01:50:49.820Z,13.65
2023-04-09T01:53:17.075Z,14.75
2023-04-09T01:55:44.056Z,13.50
2023-04-09T01:58:12.151Z,14.57
2023-04-09T02:00:44.633Z,13.10
2023-04-09T02:03:21.089Z,14.98
2023-04-09T02:06:02.745Z,16.17
2023-04-09T02:08:31.008Z,14.52
2023-04-09T02:10:59.649Z,15.27
2023-04-09T02:13:28.913Z,14.07
2023-04-09T02:15:58.087Z,16.50
2023-04-09T02:18:30.214Z,16.55
2023-04-09T02:20:58.666Z,15.43
2023-04-09T02:23:27.368Z,14.68
2023-04-09T02:25:54.608Z,14.88
2023-04-09T02:28:21.529Z,16.25
2023-04-09T02:30:48.574Z,13.82
2023-04-09T02:33:15.521Z,15.80
2023-04-09T02:35:42.457Z,15.73
2023-04-09T02:38:16.564Z,17.27
2023-04-09T02:40:43.673Z,16.00
2023-04-09T02:43:10.775Z,15.57
2023-04-09T02:45:37.756Z,16.92
2023-04-09T02:48:04.851Z,17.63
2023-04-09T02:50:31.933Z,18.33
2023-04-09T02:52:58.915Z,17.25
2023-04-09T02:55:25.908Z,16.80
2023-04-09T02:57:52.771Z,17.92
2023-04-09T03:00:19.757Z,19.58
2023-04-09T03:02:46.725Z,17.90
2023-04-09T03:05:13.750Z,20.23
2023-04-09T03:07:40.806Z,22.30
2023-04-09T03:10:07.969Z,21.73
2023-04-09T03:12:34.905Z,21.17
2023-04-09T03:15:01.820Z,20.55
2023-04-09T03:17:32.030Z,21.23
2023-04-09T03:19:59.389Z,18.63
2023-04-09T03:22:26.297Z,21.85
2023-04-09T03:24:53.171Z,20.55
2023-04-09T03:27:20.164Z,19.80
2023-04-09T03:29:47.041Z,18.08
2023-04-09T03:32:13.959Z,16.63
2023-04-09T03:34:41.038Z,16.45
2023-04-09T03:37:07.958Z,18.17
2023-04-09T03:39:34.949Z,17.50
2023-04-09T03:42:02.507Z,16.15
2023-04-09T03:44:29.386Z,15.20
2023-04-09T03:46:56.355Z,19.17
2023-04-09T03:49:23.421Z,17.25
2023-04-09T03:51:50.356Z,14.98
2023-04-09T03:54:17.428Z,16.38
2023-04-09T03:56:44.348Z,17.75
2023-04-09T03:59:11.295Z,18.63
2023-04-09T04:01:38.296Z,15.82
2023-04-09T04:04:05.389Z,16.33
2023-04-09T04:06:35.659Z,15.65
2023-04-09T04:09:02.699Z,15.75
2023-04-09T04:11:30.113Z,15.75
2023-04-09T04:13:57.225Z,15.30
2023-04-09T04:16:24.348Z,17.23
2023-04-09T04:18:51.473Z,16.67
2023-04-09T04:21:18.604Z,16.35
2023-04-09T04:23:45.760Z,17.67
2023-04-09T04:26:12.770Z,18.00
2023-04-09T04:28:40.474Z,18.73
2023-04-09T04:31:11.758Z,19.00
2023-04-09T04:33:40.664Z,20.13
2023-04-09T04:36:12.152Z,19.75
2023-04-09T04:38:39.877Z,20.23
2023-04-09T04:41:06.809Z,17.90
2023-04-09T04:43:33.964Z,18.15
2023-04-09T04:46:01.048Z,17.77
2023-04-09T04:48:29.103Z,17.95
2023-04-09T04:51:01.528Z,17.55
2023-04-09T04:53:28.854Z,16.77
2023-04-09T04:55:55.771Z,15.32
2023-04-09T04:58:22.721Z,15.73
2023-04-09T05:00:49.780Z,14.32
2023-04-09T05:03:16.918Z,17.23
2023-04-09T05:05:43.968Z,17.65
2023-04-09T05:08:11.041Z,15.10
2023-04-09T05:10:40.592Z,14.45
2023-04-09T05:13:07.557Z,14.98
2023-04-09T05:15:39.376Z,12.73
2023-04-09T05:18:06.891Z,12.63
2023-04-09T05:20:34.757Z,12.07
2023-04-09T05:23:01.987Z,12.55
2023-04-09T05:25:28.967Z,12.23
2023-04-09T05:27:56.160Z,11.60
2023-04-09T05:30:23.248Z,11.15
2023-04-09T05:32:50.308Z,11.05
2023-04-09T05:35:17.397Z,10.50
2023-04-09T05:37:44.394Z,9.88
2023-04-09T05:40:12.019Z,10.27
2023-04-09T05:42:38.914Z,10.20
2023-04-09T05:45:06.446Z,9.27
2023-04-09T05:47:33.410Z,9.02
2023-04-09T05:50:00.310Z,10.13
2023-04-09T05:52:27.335Z,9.45
2023-04-09T05:54:54.282Z,8.85
2023-04-09T05:57:21.179Z,8.75
2023-04-09T05:59:48.117Z,9.68
2023-04-09T06:02:15.208Z,7.90
2023-04-09T06:04:42.270Z,7.90
2023-04-09T06:07:09.178Z,7.15
2023-04-09T06:09:36.170Z,6.97
2023-04-09T06:12:03.056Z,7.18
2023-04-09T06:14:32.919Z,7.13
2023-04-09T06:17:00.268Z,6.15
2023-04-09T06:19:27.468Z,7.05
2023-04-09T06:21:54.392Z,7.03
2023-04-09T06:24:21.591Z,6.82
2023-04-09T06:26:48.662Z,7.07
2023-04-09T06:29:15.867Z,7.78
2023-04-09T06:31:42.839Z,6.20
2023-04-09T06:34:11.159Z,6.15
2023-04-09T06:36:40.505Z,6.15
2023-04-09T06:39:07.615Z,5.88
2023-04-09T06:41:34.576Z,6.53
2023-04-09T06:44:01.705Z,5.70
2023-04-09T06:46:29.027Z,5.45
2023-04-09T06:48:55.976Z,4.75
2023-04-09T06:51:22.952Z,5.60
2023-04-09T06:53:50.033Z,4.90
2023-04-09T06:56:17.177Z,4.40
2023-04-09T06:58:44.123Z,4.43
2023-04-09T07:01:13.063Z,3.92
2023-04-09T07:03:40.750Z,3.97
2023-04-09T07:06:07.776Z,3.80
2023-04-09T07:08:40.810Z,4.43
2023-04-09T07:11:07.775Z,4.35
2023-04-09T07:13:34.818Z,4.38
2023-04-09T07:16:01.823Z,3.75
2023-04-09T07:18:28.698Z,3.70
2023-04-09T07:20:56.055Z,3.75
2023-04-09T07:23:22.984Z,3.60
2023-04-09T07:25:50.032Z,3.55
2023-04-09T07:28:17.034Z,3.55
2023-04-09T07:30:44.135Z,3.60
2023-04-09T07:33:11.149Z,3.05
2023-04-09T07:35:38.177Z,3.33
2023-04-09T07:38:05.187Z,4.25
2023-04-09T07:40:34.171Z,4.22
2023-04-09T07:43:01.184Z,4.07
2023-04-09T07:45:28.131Z,3.50
2023-04-09T07:47:55.162Z,3.00
2023-04-09T07:50:22.613Z,4.03
2023-04-09T07:52:49.538Z,3.85
2023-04-09T07:55:18.488Z,4.63
2023-04-09T07:57:45.482Z,4.55
2023-04-09T08:00:12.977Z,3.70
2023-04-09T08:02:40.072Z,4.72
2023-04-09T08:05:08.100Z,5.38
2023-04-09T08:07:35.100Z,5.80
2023-04-09T08:10:02.008Z,3.90
2023-04-09T08:12:28.955Z,4.97
2023-04-09T08:14:56.240Z,7.13
2023-04-09T08:17:23.430Z,6.85
2023-04-09T08:19:50.461Z,6.63
2023-04-09T08:22:17.333Z,5.97
2023-04-09T08:24:44.260Z,4.53
2023-04-09T08:27:11.223Z,7.15
2023-04-09T08:29:40.582Z,4.80
2023-04-09T08:32:08.242Z,4.75
2023-04-09T08:34:35.252Z,5.90
2023-04-09T08:37:02.853Z,5.47
2023-04-09T08:39:29.837Z,6.07
2023-04-09T08:42:02.431Z,5.18
2023-04-09T08:44:30.032Z,5.18
2023-04-09T08:46:58.527Z,4.65
2023-04-09T08:49:26.590Z,4.28
2023-04-09T08:51:53.476Z,4.85
2023-04-09T08:54:20.472Z,5.32
2023-04-09T08:56:47.668Z,7.30
2023-04-09T08:59:20.988Z,5.22
2023-04-09T09:01:52.832Z,4.43
2023-04-09T09:04:20.179Z,5.18
2023-04-09T09:06:47.195Z,7.88
2023-04-09T09:09:16.209Z,7.53
2023-04-09T09:11:48.396Z,7.72
2023-04-09T09:14:17.414Z,12.70
2023-04-09T09:17:03.936Z,6.32
2023-04-09T09:19:34.322Z,9.10
2023-04-09T09:22:06.310Z,4.07
2023-04-09T09:24:34.684Z,7.13
2023-04-09T09:27:02.558Z,6.50
2023-04-09T09:29:29.887Z,6.50
2023-04-09T09:31:57.131Z,3.78
2023-04-09T09:34:25.724Z,4.57
2023-04-09T09:36:52.822Z,3.30
2023-04-09T09:39:22.123Z,4.18
2023-04-09T09:42:06.786Z,3.80
2023-04-09T09:44:34.131Z,3.25
2023-04-09T09:47:03.455Z,4.20
2023-04-09T09:49:30.407Z,5.40
2023-04-09T09:51:59.617Z,6.18
2023-04-09T09:54:33.348Z,3.75
2023-04-09T09:57:07.792Z,5.90
2023-04-09T10:02:06.355Z,5.15
2023-04-09T10:04:36.809Z,4.22
2023-04-09T10:07:07.331Z,4.25
2023-04-09T10:09:43.416Z,3.47
2023-04-09T10:12:12.218Z,3.10
2023-04-09T10:14:40.417Z,3.22
2023-04-09T10:17:07.837Z,3.35
2023-04-09T10:19:44.719Z,3.30
2023-04-09T10:22:16.231Z,3.65
2023-04-09T10:24:43.460Z,4.55
2023-04-09T10:27:16.829Z,3.28
2023-04-09T10:29:52.099Z,3.78
2023-04-09T10:32:21.834Z,4.03
2023-04-09T10:34:50.820Z,2.15
2023-04-09T10:37:22.969Z,3.08
2023-04-09T10:39:53.764Z,3.45
2023-04-09T10:42:27.524Z,3.95
2023-04-09T10:45:06.234Z,2.75
2023-04-09T10:47:35.937Z,3.05
2023-04-09T10:50:18.661Z,2.88
2023-04-09T10:52:45.876Z,2.95
2023-04-09T10:55:38.827Z,2.80
2023-04-09T10:58:12.782Z,3.00
2023-04-09T11:00:42.761Z,3.25
2023-04-09T11:03:26.310Z,2.60
2023-04-09T11:06:11.841Z,2.85
2023-04-09T11:08:39.360Z,2.72
2023-04-09T11:11:06.571Z,3.08
2023-04-09T11:13:34.608Z,3.15
2023-04-09T11:16:04.325Z,2.80
2023-04-09T11:18:33.946Z,2.83
2023-04-09T11:21:03.520Z,3.67
2023-04-09T11:23:31.915Z,3.17
2023-04-09T11:25:58.899Z,3.70
2023-04-09T11:28:26.892Z,2.50
2023-04-09T11:30:54.416Z,3.97
2023-04-09T11:33:21.693Z,2.42
2023-04-09T11:35:49.083Z,1.98
2023-04-09T11:38:16.272Z,2.70
2023-04-09T11:40:51.638Z,2.83
2023-04-09T11:43:20.963Z,3.15
2023-04-09T11:45:48.858Z,3.35
2023-04-09T11:48:18.486Z,2.95
2023-04-09T11:50:46.796Z,2.35
2023-04-09T11:53:22.048Z,3.03
2023-04-09T11:55:53.120Z,2.53
2023-04-09T11:58:26.397Z,2.65
2023-04-09T12:00:55.634Z,2.53
2023-04-09T12:03:34.744Z,2.28
2023-04-09T12:06:03.386Z,2.50
2023-04-09T12:08:31.514Z,2.70
2023-04-09T12:11:15.350Z,2.60
2023-04-09T12:13:45.373Z,2.30
2023-04-09T12:16:13.330Z,2.70
2023-04-09T12:18:41.191Z,2.47
2023-04-09T12:21:08.250Z,2.40
2023-04-09T12:23:35.318Z,2.10
2023-04-09T12:26:02.576Z,3.25
2023-04-09T12:28:29.573Z,2.90
2023-04-09T12:30:56.894Z,2.45
2023-04-09T12:33:23.832Z,2.50
2023-04-09T12:35:51.137Z,2.60
2023-04-09T12:38:18.112Z,2.70
2023-04-09T12:40:45.483Z,2.67
2023-04-09T12:43:12.484Z,2.70
2023-04-09T12:45:39.430Z,2.88
2023-04-09T12:48:06.523Z,2.60
2023-04-09T12:50:33.530Z,3.63
2023-04-09T12:53:00.455Z,3.53
2023-04-09T12:55:27.967Z,2.42
2023-04-09T12:57:54.945Z,2.70
2023-04-09T13:00:21.914Z,2.88
2023-04-09T13:02:50.073Z,3.08
2023-04-09T13:05:17.020Z,2.95
2023-04-09T13:07:44.030Z,2.47
2023-04-09T13:10:11.294Z,2.67
2023-04-09T13:12:38.343Z,3.22
2023-04-09T13:15:05.884Z,3.47
2023-04-09T13:17:32.871Z,3.00
2023-04-09T13:19:59.834Z,3.35
2023-04-09T13:22:26.766Z,2.63
2023-04-09T13:24:53.767Z,4.15
2023-04-09T13:27:20.921Z,3.03
2023-04-09T13:29:47.817Z,2.80
2023-04-09T13:32:14.802Z,2.75
2023-04-09T13:34:41.818Z,2.63
2023-04-09T13:37:08.806Z,2.47
2023-04-09T13:39:35.775Z,2.72
2023-04-09T13:42:12.673Z,2.50
2023-04-09T13:44:42.387Z,2.42
2023-04-09T13:47:11.441Z,2.58
2023-04-09T13:49:38.732Z,3.25
2023-04-09T13:52:06.350Z,2.40
2023-04-09T13:54:34.061Z,2.45
2023-04-09T13:57:01.271Z,2.15
2023-04-09T13:59:28.324Z,2.13
2023-04-09T14:01:55.387Z,1.88
2023-04-09T14:04:22.814Z,1.63
2023-04-09T14:06:49.726Z,2.40
2023-04-09T14:09:16.716Z,2.20
2023-04-09T14:11:43.669Z,2.55
2023-04-09T14:14:10.971Z,1.80
2023-04-09T14:16:37.969Z,2.25
2023-04-09T14:19:04.923Z,2.10
2023-04-09T14:21:32.114Z,1.95
2023-04-09T14:23:59.034Z,2.00
2023-04-09T14:26:26.857Z,2.22
2023-04-09T14:28:53.980Z,2.10
2023-04-09T14:31:21.688Z,1.80
2023-04-09T14:33:49.304Z,2.20
2023-04-09T14:36:17.100Z,2.10
2023-04-09T14:38:44.059Z,2.50
2023-04-09T14:41:11.025Z,2.00
2023-04-09T14:43:38.031Z,2.20
2023-04-09T14:46:06.561Z,1.83
2023-04-09T14:48:33.580Z,1.90
2023-04-09T14:51:00.515Z,1.90
2023-04-09T14:53:27.485Z,2.13
2023-04-09T14:55:54.453Z,1.80
2023-04-09T14:58:21.581Z,2.00
2023-04-09T15:00:48.961Z,2.10
2023-04-09T15:03:16.302Z,1.90
2023-04-09T15:05:43.343Z,1.92
2023-04-09T15:08:10.487Z,2.03
2023-04-09T15:10:37.594Z,2.08
2023-04-09T15:13:04.521Z,2.13
2023-04-09T15:15:31.829Z,2.05
2023-04-09T15:18:05.604Z,2.05
2023-04-09T15:20:37.362Z,1.70
2023-04-09T15:23:04.345Z,2.53
2023-04-09T15:25:31.329Z,2.08
2023-04-09T15:27:58.950Z,2.75
2023-04-09T15:30:26.591Z,1.98
2023-04-09T15:32:53.638Z,3.22
2023-04-09T15:35:25.219Z,2.40
2023-04-09T15:37:52.325Z,2.08
2023-04-09T15:40:19.370Z,2.58
2023-04-09T15:42:46.299Z,2.30
2023-04-09T15:45:16.026Z,2.25
2023-04-09T15:47:45.072Z,2.33
2023-04-09T15:50:12.228Z,2.10
2023-04-09T15:52:39.203Z,2.50
2023-04-09T15:55:06.780Z,2.80
2023-04-09T15:57:33.686Z,2.60
2023-04-09T16:00:00.690Z,2.35
2023-04-09T16:02:27.740Z,2.22
2023-04-09T16:04:54.826Z,1.95
2023-04-09T16:07:21.872Z,2.10
2023-04-09T16:09:49.065Z,2.10
2023-04-09T16:12:16.191Z,2.60
2023-04-09T16:14:43.360Z,2.30
2023-04-09T16:17:10.460Z,2.58
2023-04-09T16:19:37.491Z,2.67
2023-04-09T16:22:04.426Z,2.05
2023-04-09T16:24:32.452Z,2.58
2023-04-09T16:26:59.337Z,2.45
2023-04-09T16:29:26.245Z,2.90
2023-04-09T16:31:53.765Z,2.72
2023-04-09T16:34:20.952Z,2.45
2023-04-09T16:36:47.899Z,2.72
2023-04-09T16:39:15.582Z,2.67
2023-04-09T16:41:44.375Z,2.85
2023-04-09T16:44:11.241Z,3.10
2023-04-09T16:46:38.181Z,3.45
2023-04-09T16:49:05.117Z,2.78
2023-04-09T16:51:32.121Z,3.03
2023-04-09T16:53:59.065Z,3.15
2023-04-09T16:56:26.117Z,2.78
2023-04-09T16:58:53.287Z,2.60
2023-04-09T17:01:20.549Z,3.30
2023-04-09T17:03:51.255Z,3.10
2023-04-09T17:06:18.243Z,3.17
2023-04-09T17:08:45.847Z,3.67
2023-04-09T17:11:16.527Z,3.00
2023-04-09T17:13:43.608Z,3.28
2023-04-09T17:16:13.150Z,3.90
2023-04-09T17:18:40.200Z,3.10
2023-04-09T17:21:07.249Z,3.20
2023-04-09T17:23:34.255Z,4.30
2023-04-09T17:26:02.274Z,4.90
2023-04-09T17:28:29.454Z,4.60
2023-04-09T17:30:56.676Z,4.65
2023-04-09T17:33:23.702Z,5.45
2023-04-09T17:35:50.902Z,7.05
2023-04-09T17:38:21.485Z,6.88
2023-04-09T17:40:48.774Z,6.82
2023-04-09T17:43:15.747Z,7.82
2023-04-09T17:45:42.758Z,6.00
2023-04-09T17:48:09.796Z,6.10
2023-04-09T17:50:39.644Z,6.28
2023-04-09T17:53:06.605Z,5.88
2023-04-09T17:55:33.717Z,6.35
2023-04-09T17:58:00.673Z,5.43
2023-04-09T18:00:27.713Z,5.82
2023-04-09T18:02:54.993Z,5.28
2023-04-09T18:05:23.106Z,5.80
2023-04-09T18:07:50.820Z,6.38
2023-04-09T18:10:18.549Z,6.53
2023-04-09T18:12:45.919Z,5.80
2023-04-09T18:15:12.889Z,5.72
2023-04-09T18:17:39.981Z,6.22
2023-04-09T18:20:07.735Z,5.25
2023-04-09T18:22:36.262Z,5.35
2023-04-09T18:25:03.475Z,5.47
2023-04-09T18:27:30.818Z,5.32
2023-04-09T18:29:57.715Z,5.65
2023-04-09T18:32:25.455Z,4.70
2023-04-09T18:34:53.060Z,5.55
2023-04-09T18:37:21.611Z,5.63
2023-04-09T18:39:48.620Z,5.28
2023-04-09T18:42:15.613Z,5.50
2023-04-09T18:44:42.654Z,6.82
2023-04-09T18:47:11.119Z,8.35
2023-04-09T18:53:26.501Z,7.53
2023-04-09T18:55:53.452Z,7.78
2023-04-09T18:58:20.396Z,6.55
2023-04-09T19:00:50.680Z,6.85
2023-04-09T19:03:19.370Z,7.65
2023-04-09T19:05:46.699Z,7.05
2023-04-09T19:08:14.331Z,5.40
2023-04-09T19:10:42.419Z,5.43
2023-04-09T19:13:09.303Z,5.43
2023-04-09T19:15:36.209Z,4.70
2023-04-09T19:18:03.140Z,4.68
2023-04-09T19:24:17.450Z,5.13
2023-04-09T19:26:44.379Z,4.50
2023-04-09T19:29:11.396Z,5.53
2023-04-09T19:31:38.496Z,5.53
2023-04-09T19:34:06.192Z,6.10
2023-04-09T19:36:34.105Z,6.68
2023-04-09T19:39:01.285Z,5.13
2023-04-09T19:41:28.408Z,5.40
2023-04-09T19:43:55.366Z,5.13
2023-04-09T19:46:22.305Z,5.85
2023-04-09T19:48:49.273Z,5.00
2023-04-09T19:51:22.062Z,5.22
2023-04-09T19:53:49.405Z,5.03
2023-04-09T19:56:16.477Z,5.05
2023-04-09T19:58:43.872Z,5.28
2023-04-09T20:01:10.946Z,5.28
2023-04-09T20:03:38.190Z,5.38
2023-04-09T20:06:09.959Z,5.90
2023-04-09T20:08:38.129Z,4.32
2023-04-09T20:11:05.676Z,5.10
2023-04-09T20:13:33.388Z,5.53
2023-04-09T20:16:00.820Z,5.85
2023-04-09T20:18:28.739Z,5.38
2023-04-09T20:20:55.795Z,5.00
2023-04-09T20:23:22.830Z,4.20
2023-04-09T20:25:54.938Z,4.38
2023-04-09T20:28:22.173Z,4.88
2023-04-09T20:30:49.439Z,4.90
2023-04-09T20:33:17.703Z,4.85
2023-04-09T20:35:44.685Z,4.40
2023-04-09T20:38:11.620Z,4.55
2023-04-09T20:40:38.602Z,5.28
2023-04-09T20:43:05.632Z,4.60
2023-04-09T20:45:32.575Z,5.20
2023-04-09T20:47:59.555Z,4.22
2023-04-09T20:50:26.537Z,4.20
2023-04-09T20:52:53.532Z,4.30
2023-04-09T20:55:20.594Z,4.88
2023-04-09T20:57:47.517Z,5.00
2023-04-09T21:00:14.723Z,4.97
2023-04-09T21:02:41.844Z,5.20
2023-04-09T21:05:21.834Z,5.28
2023-04-09T21:07:51.762Z,4.85
2023-04-09T21:10:18.800Z,4.72
2023-04-09T21:12:45.770Z,5.30
2023-04-09T21:15:12.854Z,5.65
2023-04-09T21:17:39.809Z,4.80
2023-04-09T21:20:07.254Z,5.75
2023-04-09T21:22:34.993Z,7.65
2023-04-09T21:25:03.412Z,8.73
2023-04-09T21:27:30.481Z,9.50
2023-04-09T21:29:57.594Z,7.40
2023-04-09T21:32:25.265Z,6.80
2023-04-09T21:34:52.406Z,7.43
2023-04-09T21:37:19.364Z,8.48
2023-04-09T21:39:48.335Z,9.02
2023-04-09T21:42:15.244Z,8.75
2023-04-09T21:44:42.196Z,10.82
2023-04-09T21:47:09.494Z,11.45
2023-04-09T21:49:40.310Z,11.38
2023-04-09T21:52:14.498Z,11.73
2023-04-09T21:54:42.492Z,10.00
2023-04-09T21:57:10.140Z,10.50
2023-04-09T21:59:37.358Z,8.50
2023-04-09T22:02:07.813Z,6.50
2023-04-09T22:08:21.418Z,5.45
2023-04-09T22:10:48.316Z,5.10
2023-04-09T22:13:15.524Z,5.22
2023-04-09T22:15:42.835Z,5.18
2023-04-09T22:18:09.779Z,6.30
2023-04-09T22:20:36.906Z,5.78
2023-04-09T22:23:03.879Z,5.80
2023-04-09T22:25:34.975Z,5.53
2023-04-09T22:28:02.230Z,4.70
2023-04-09T22:30:29.284Z,5.20
2023-04-09T22:32:56.217Z,5.55
2023-04-09T22:35:23.189Z,5.63
2023-04-09T22:37:50.106Z,6.43
2023-04-09T22:40:17.087Z,6.15
2023-04-09T22:42:46.195Z,5.68
2023-04-09T22:45:13.585Z,6.35
2023-04-09T22:47:40.630Z,6.07
2023-04-09T22:50:08.374Z,5.93
2023-04-09T22:52:35.558Z,5.30
2023-04-09T22:55:02.562Z,6.60
2023-04-09T22:57:30.390Z,6.18
2023-04-09T22:59:57.710Z,6.25
2023-04-09T23:02:24.845Z,5.93
2023-04-09T23:04:51.863Z,5.97
2023-04-09T23:07:18.768Z,6.35
2023-04-09T23:09:45.663Z,7.07
2023-04-09T23:12:12.614Z,5.65
2023-04-09T23:14:39.552Z,6.57
2023-04-09T23:17:06.562Z,6.55
2023-04-09T23:19:33.466Z,6.78
2023-04-09T23:22:00.407Z,6.45
2023-04-09T23:24:27.344Z,7.78
2023-04-09T23:26:54.308Z,7.65
2023-04-09T23:29:21.330Z,7.47
2023-04-09T23:31:48.308Z,7.18
2023-04-09T23:34:15.418Z,8.23
2023-04-09T23:36:42.409Z,7.68
2023-04-09T23:39:09.395Z,8.40
2023-04-09T23:41:36.266Z,7.20
2023-04-09T23:44:03.429Z,7.32
2023-04-09T23:46:30.707Z,7.93
2023-04-09T23:48:57.713Z,7.43
2023-04-09T23:51:24.660Z,8.18
2023-04-09T23:53:51.814Z,7.53
2023-04-09T23:56:18.908Z,8.30
2023-04-09T23:58:45.940Z,8.63
